createdAt,value
2023-06-23T00:01:23.467Z,102334.84
2023-06-23T00:03:56.002Z,102347.25
2023-06-23T00:06:26.125Z,102345.84
2023-06-23T00:08:56.284Z,102351.38
2023-06-23T00:11:24.676Z,102346.34
2023-06-23T00:13:54.879Z,102339.28
2023-06-23T00:16:23.044Z,102355.91
2023-06-23T00:18:51.168Z,102350.78
2023-06-23T00:21:19.395Z,102340.41
2023-06-23T00:23:48.106Z,102339.75
2023-06-23T00:26:16.603Z,102356.38
2023-06-23T00:28:45.486Z,102350.84
2023-06-23T00:31:21.412Z,102344.47
2023-06-23T00:33:49.782Z,102347.47
2023-06-23T00:36:20.509Z,102348.47
2023-06-23T00:38:48.852Z,102345.78
2023-06-23T00:41:18.779Z,102347.47
2023-06-23T00:43:51.498Z,102357.06
2023-06-23T00:46:22.842Z,102353.69
2023-06-23T00:48:51.014Z,102347.81
2023-06-23T00:51:19.075Z,102340.22
2023-06-23T00:53:48.324Z,102348.47
2023-06-23T00:56:16.720Z,102347.25
2023-06-23T00:58:44.729Z,102340.22
2023-06-23T01:01:13.221Z,102340.47
2023-06-23T01:03:42.827Z,102347.19
2023-06-23T01:06:12.250Z,102342.28
2023-06-23T01:08:44.591Z,102342.13
2023-06-23T01:11:13.938Z,102336.59
2023-06-23T01:13:44.521Z,102342.81
2023-06-23T01:16:17.074Z,102344.97
2023-06-23T01:18:51.073Z,102342.78
2023-06-23T01:21:21.339Z,102342.91
2023-06-23T01:24:23.177Z,102338.53
2023-06-23T01:26:59.490Z,102340.88
2023-06-23T01:29:30.821Z,102332.28
2023-06-23T01:32:03.067Z,102343.22
2023-06-23T01:34:35.630Z,102355.25
2023-06-23T01:37:05.991Z,102354.06
2023-06-23T01:39:35.258Z,102349.81
2023-06-23T01:42:09.789Z,102343.09
2023-06-23T01:44:39.743Z,102340.56
2023-06-23T01:47:12.312Z,102339.72
2023-06-23T01:49:40.951Z,102338.34
2023-06-23T01:52:10.550Z,102346.34
2023-06-23T01:54:41.623Z,102353.19
2023-06-23T01:57:10.602Z,102355.50
2023-06-23T01:59:41.033Z,102362.34
2023-06-23T02:02:10.944Z,102354.28
2023-06-23T02:04:42.462Z,102350.75
2023-06-23T02:07:12.305Z,102354.91
2023-06-23T02:09:42.457Z,102363.25
2023-06-23T02:12:10.800Z,102359.56
2023-06-23T02:14:41.652Z,102368.63
2023-06-23T02:17:11.727Z,102371.41
2023-06-23T02:19:41.367Z,102372.28
2023-06-23T02:22:10.678Z,102378.38
2023-06-23T02:24:39.418Z,102373.69
2023-06-23T02:27:09.378Z,102364.66
2023-06-23T02:29:43.226Z,102380.06
2023-06-23T02:32:14.434Z,102377.38
2023-06-23T02:34:42.586Z,102371.31
2023-06-23T02:37:11.468Z,102359.88
2023-06-23T02:39:44.780Z,102364.16
2023-06-23T02:42:14.523Z,102362.78
2023-06-23T02:44:51.427Z,102359.72
2023-06-23T02:47:21.392Z,102370.44
2023-06-23T02:49:49.520Z,102378.50
2023-06-23T02:52:17.585Z,102381.19
2023-06-23T02:54:48.365Z,102378.66
2023-06-23T02:57:17.655Z,102392.22
2023-06-23T02:59:47.015Z,102386.84
2023-06-23T03:02:16.202Z,102376.66
2023-06-23T03:04:46.399Z,102373.84
2023-06-23T03:07:14.513Z,102372.16
2023-06-23T03:09:43.749Z,102377.19
2023-06-23T03:12:11.905Z,102372.66
2023-06-23T03:14:40.322Z,102368.97
2023-06-23T03:17:13.238Z,102366.31
2023-06-23T03:19:44.556Z,102363.09
2023-06-23T03:22:13.841Z,102354.34
2023-06-23T03:24:45.479Z,102342.91
2023-06-23T03:27:14.517Z,102355.34
2023-06-23T03:29:45.038Z,102368.63
2023-06-23T03:32:16.715Z,102363.25
2023-06-23T03:34:47.521Z,102354.03
2023-06-23T03:37:15.624Z,102352.66
2023-06-23T03:39:43.714Z,102365.00
2023-06-23T03:42:11.864Z,102375.34
2023-06-23T03:44:41.657Z,102366.59
2023-06-23T03:47:15.151Z,102364.91
2023-06-23T03:49:46.941Z,102367.88
2023-06-23T03:52:15.578Z,102368.91
2023-06-23T03:54:43.601Z,102360.00
2023-06-23T03:57:12.959Z,102362.69
2023-06-23T03:59:40.985Z,102358.47
2023-06-23T04:02:09.158Z,102358.31
2023-06-23T04:04:37.188Z,102361.53
2023-06-23T04:07:07.064Z,102363.53
2023-06-23T04:09:35.034Z,102375.78
2023-06-23T04:12:06.069Z,102379.19
2023-06-23T04:14:34.832Z,102383.69
2023-06-23T04:20:01.989Z,102369.91
2023-06-23T04:22:31.456Z,102373.97
2023-06-23T04:24:59.581Z,102375.66
2023-06-23T04:27:28.158Z,102384.06
2023-06-23T04:29:56.222Z,102385.47
2023-06-23T04:32:24.495Z,102383.94
2023-06-23T04:34:52.878Z,102374.34
2023-06-23T04:37:23.599Z,102376.03
2023-06-23T04:39:55.719Z,102379.03
2023-06-23T04:42:25.953Z,102376.63
2023-06-23T04:44:55.428Z,102384.69
2023-06-23T04:47:24.612Z,102393.44
2023-06-23T04:49:57.370Z,102389.78
2023-06-23T04:52:27.285Z,102393.81
2023-06-23T04:55:00.228Z,102386.31
2023-06-23T04:57:30.678Z,102388.53
2023-06-23T05:00:00.967Z,102386.78
2023-06-23T05:02:29.889Z,102388.56
2023-06-23T05:04:58.022Z,102384.44
2023-06-23T05:07:26.883Z,102392.50
2023-06-23T05:09:58.534Z,102395.19
2023-06-23T05:12:27.372Z,102391.16
2023-06-23T05:14:55.435Z,102389.56
2023-06-23T05:17:23.969Z,102394.00
2023-06-23T05:19:53.128Z,102383.63
2023-06-23T05:22:23.935Z,102395.44
2023-06-23T05:24:55.440Z,102406.78
2023-06-23T05:27:27.867Z,102400.63
2023-06-23T05:29:57.506Z,102412.09
2023-06-23T05:32:26.561Z,102409.47
2023-06-23T05:34:56.525Z,102412.22
2023-06-23T05:37:24.832Z,102416.00
2023-06-23T05:39:52.869Z,102412.34
2023-06-23T05:42:21.682Z,102404.47
2023-06-23T05:44:51.354Z,102412.44
2023-06-23T05:47:20.535Z,102414.13
2023-06-23T05:49:48.729Z,102408.78
2023-06-23T05:52:18.844Z,102411.22
2023-06-23T05:54:48.093Z,102417.63
2023-06-23T05:57:20.504Z,102424.03
2023-06-23T05:59:50.112Z,102407.38
2023-06-23T06:02:21.019Z,102420.69
2023-06-23T06:04:50.487Z,102423.34
2023-06-23T06:07:19.903Z,102424.03
2023-06-23T06:09:48.178Z,102434.84
2023-06-23T06:12:16.867Z,102413.50
2023-06-23T06:14:45.142Z,102425.13
2023-06-23T06:17:14.841Z,102428.50
2023-06-23T06:19:43.628Z,102434.41
2023-06-23T06:22:12.619Z,102448.72
2023-06-23T06:24:40.723Z,102440.63
2023-06-23T06:27:09.529Z,102446.34
2023-06-23T06:29:37.897Z,102450.56
2023-06-23T06:32:06.762Z,102449.38
2023-06-23T06:34:36.836Z,102435.44
2023-06-23T06:37:05.240Z,102441.00
2023-06-23T06:39:35.619Z,102443.69
2023-06-23T06:42:04.348Z,102439.50
2023-06-23T06:44:32.406Z,102437.28
2023-06-23T06:47:02.785Z,102445.53
2023-06-23T06:49:31.023Z,102447.75
2023-06-23T06:52:00.629Z,102456.31
2023-06-23T06:54:28.744Z,102456.50
2023-06-23T06:56:57.182Z,102467.66
2023-06-23T06:59:25.900Z,102465.31
2023-06-23T07:01:54.481Z,102469.16
2023-06-23T07:04:23.395Z,102457.53
2023-06-23T07:06:56.251Z,102472.88
2023-06-23T07:09:29.127Z,102468.63
2023-06-23T07:11:59.187Z,102461.06
2023-06-23T07:14:27.297Z,102458.00
2023-06-23T07:16:55.599Z,102457.38
2023-06-23T07:19:25.204Z,102445.56
2023-06-23T07:21:55.018Z,102457.69
2023-06-23T07:24:23.237Z,102457.84
2023-06-23T07:26:52.961Z,102454.13
2023-06-23T07:29:22.623Z,102450.75
2023-06-23T07:31:50.757Z,102450.38
2023-06-23T07:34:22.124Z,102451.03
2023-06-23T07:36:52.289Z,102470.25
2023-06-23T07:39:21.088Z,102465.84
2023-06-23T07:41:51.300Z,102468.88
2023-06-23T07:44:22.329Z,102467.88
2023-06-23T07:46:50.599Z,102463.09
2023-06-23T07:49:18.833Z,102464.28
2023-06-23T07:51:46.999Z,102469.16
2023-06-23T07:54:15.640Z,102464.44
2023-06-23T07:56:44.397Z,102459.63
2023-06-23T07:59:14.391Z,102464.16
2023-06-23T08:01:44.715Z,102462.59
2023-06-23T08:04:16.758Z,102463.22
2023-06-23T08:06:45.749Z,102466.09
2023-06-23T08:09:21.007Z,102461.19
2023-06-23T08:11:49.465Z,102467.84
2023-06-23T08:14:18.762Z,102461.13
2023-06-23T08:16:49.867Z,102463.53
2023-06-23T08:19:22.768Z,102447.19
2023-06-23T08:21:53.661Z,102454.50
2023-06-23T08:24:22.487Z,102453.75
2023-06-23T08:26:50.915Z,102453.81
2023-06-23T08:29:19.222Z,102456.81
2023-06-23T08:31:49.888Z,102450.19
2023-06-23T08:34:20.129Z,102453.91
2023-06-23T08:36:48.591Z,102450.22
2023-06-23T08:39:18.384Z,102453.66
2023-06-23T08:41:49.622Z,102454.66
2023-06-23T08:44:19.168Z,102453.84
2023-06-23T08:47:04.429Z,102444.03
2023-06-23T08:49:35.715Z,102455.34
2023-06-23T08:52:06.295Z,102454.50
2023-06-23T08:54:35.632Z,102454.31
2023-06-23T08:57:05.335Z,102452.06
2023-06-23T08:59:33.427Z,102448.00
2023-06-23T09:02:04.529Z,102458.22
2023-06-23T09:04:33.008Z,102442.44
2023-06-23T09:07:01.198Z,102453.00
2023-06-23T09:09:29.589Z,102456.81
2023-06-23T09:11:57.663Z,102445.06
2023-06-23T09:14:26.203Z,102450.66
2023-06-23T09:16:55.523Z,102443.47
2023-06-23T09:19:25.257Z,102442.75
2023-06-23T09:21:53.470Z,102444.50
2023-06-23T09:24:21.496Z,102443.88
2023-06-23T09:26:52.085Z,102448.81
2023-06-23T09:29:22.098Z,102447.34
2023-06-23T09:31:51.163Z,102444.63
2023-06-23T09:34:25.192Z,102450.03
2023-06-23T09:36:54.205Z,102444.63
2023-06-23T09:39:23.377Z,102445.91
2023-06-23T09:41:57.211Z,102455.34
2023-06-23T09:44:39.488Z,102448.19
2023-06-23T09:47:08.518Z,102454.16
2023-06-23T09:49:41.793Z,102464.03
2023-06-23T09:52:11.725Z,102455.91
2023-06-23T09:54:41.778Z,102456.75
2023-06-23T09:57:10.594Z,102473.94
2023-06-23T09:59:40.625Z,102470.72
2023-06-23T10:02:09.042Z,102462.56
2023-06-23T10:04:37.789Z,102476.66
2023-06-23T10:07:21.813Z,102475.56
2023-06-23T10:09:50.761Z,102468.78
2023-06-23T10:12:21.567Z,102471.94
2023-06-23T10:14:52.251Z,102470.16
2023-06-23T10:17:20.742Z,102471.09
2023-06-23T10:19:48.841Z,102464.53
2023-06-23T10:22:18.337Z,102463.31
2023-06-23T10:24:49.792Z,102465.16
2023-06-23T10:27:19.288Z,102454.81
2023-06-23T10:29:50.289Z,102442.75
2023-06-23T10:32:18.443Z,102444.69
2023-06-23T10:34:53.133Z,102439.47
2023-06-23T10:37:31.849Z,102435.78
2023-06-23T10:40:12.235Z,102440.84
2023-06-23T10:42:41.442Z,102423.25
2023-06-23T10:45:10.621Z,102421.13
2023-06-23T10:47:38.797Z,102423.69
2023-06-23T10:50:08.430Z,102432.44
2023-06-23T10:52:39.609Z,102426.63
2023-06-23T10:55:40.769Z,102429.03
2023-06-23T10:58:13.001Z,102431.63
2023-06-23T11:00:41.577Z,102428.91
2023-06-23T11:03:14.986Z,102418.19
2023-06-23T11:05:43.999Z,102430.47
2023-06-23T11:08:14.065Z,102417.16
2023-06-23T11:10:51.071Z,102413.41
2023-06-23T11:13:19.344Z,102420.13
2023-06-23T11:15:56.317Z,102433.53
2023-06-23T11:18:25.425Z,102419.56
2023-06-23T11:20:53.596Z,102423.53
2023-06-23T11:23:22.275Z,102425.66
2023-06-23T11:25:53.641Z,102420.66
2023-06-23T11:28:30.591Z,102429.69
2023-06-23T11:31:10.068Z,102414.88
2023-06-23T11:33:39.964Z,102425.97
2023-06-23T11:36:11.497Z,102421.56
2023-06-23T11:38:41.954Z,102410.28
2023-06-23T11:41:11.549Z,102414.88
2023-06-23T11:43:42.506Z,102408.59
2023-06-23T11:46:17.409Z,102414.88
2023-06-23T11:48:51.927Z,102419.09
2023-06-23T11:51:21.249Z,102411.56
2023-06-23T11:53:49.886Z,102405.91
2023-06-23T11:56:22.876Z,102396.47
2023-06-23T11:58:57.628Z,102408.41
2023-06-23T12:01:28.018Z,102406.34
2023-06-23T12:03:56.687Z,102401.53
2023-06-23T12:06:25.997Z,102406.53
2023-06-23T12:08:54.491Z,102404.00
2023-06-23T12:11:32.622Z,102410.63
2023-06-23T12:14:04.361Z,102406.06
2023-06-23T12:16:39.913Z,102404.97
2023-06-23T12:19:08.597Z,102409.41
2023-06-23T12:21:40.592Z,102406.66
2023-06-23T12:24:11.844Z,102404.16
2023-06-23T12:26:47.749Z,102407.31
2023-06-23T12:29:20.797Z,102408.13
2023-06-23T12:31:55.825Z,102403.72
2023-06-23T12:34:25.888Z,102417.78
2023-06-23T12:36:54.084Z,102396.03
2023-06-23T12:39:23.992Z,102403.16
2023-06-23T12:41:54.208Z,102416.53
2023-06-23T12:44:23.465Z,102422.72
2023-06-23T12:46:51.812Z,102411.44
2023-06-23T12:49:20.582Z,102408.66
2023-06-23T12:51:53.563Z,102412.38
2023-06-23T12:54:25.856Z,102420.72
2023-06-23T12:56:59.794Z,102415.09
2023-06-23T12:59:30.106Z,102427.00
2023-06-23T13:02:01.110Z,102427.31
2023-06-23T13:04:30.434Z,102410.72
2023-06-23T13:06:59.030Z,102422.03
2023-06-23T13:09:27.838Z,102408.09
2023-06-23T13:11:58.737Z,102417.94
2023-06-23T13:14:28.624Z,102425.56
2023-06-23T13:16:56.784Z,102414.47
2023-06-23T13:19:25.565Z,102421.81
2023-06-23T13:21:53.754Z,102424.94
2023-06-23T13:24:23.287Z,102427.25
2023-06-23T13:26:52.850Z,102406.53
2023-06-23T13:29:21.144Z,102422.44
2023-06-23T13:31:51.373Z,102413.22
2023-06-23T13:34:20.093Z,102406.13
2023-06-23T13:36:48.282Z,102413.47
2023-06-23T13:39:18.706Z,102396.47
2023-06-23T13:41:47.802Z,102420.97
2023-06-23T13:44:18.476Z,102423.06
2023-06-23T13:46:48.461Z,102412.59
2023-06-23T13:49:20.030Z,102419.50
2023-06-23T13:51:48.932Z,102423.66
2023-06-23T13:54:18.579Z,102412.53
2023-06-23T13:56:47.042Z,102423.25
2023-06-23T13:59:15.172Z,102414.91
2023-06-23T14:01:43.432Z,102419.88
2023-06-23T14:04:14.120Z,102417.78
2023-06-23T14:06:44.384Z,102422.16
2023-06-23T14:09:19.183Z,102421.19
2023-06-23T14:11:50.848Z,102421.81
2023-06-23T14:14:20.171Z,102420.38
2023-06-23T14:16:48.678Z,102432.09
2023-06-23T14:19:20.701Z,102438.78
2023-06-23T14:21:51.181Z,102424.97
2023-06-23T14:24:19.690Z,102432.47
2023-06-23T14:26:49.824Z,102433.25
2023-06-23T14:29:18.095Z,102434.31
2023-06-23T14:31:47.652Z,102431.63
2023-06-23T14:34:16.510Z,102417.38
2023-06-23T14:36:44.632Z,102436.69
2023-06-23T14:39:14.888Z,102444.59
2023-06-23T14:41:44.377Z,102430.38
2023-06-23T14:44:12.654Z,102443.38
2023-06-23T14:46:40.942Z,102429.78
2023-06-23T14:49:09.167Z,102434.16
2023-06-23T14:51:38.549Z,102434.53
2023-06-23T14:54:08.460Z,102434.50
2023-06-23T14:56:39.273Z,102430.28
2023-06-23T14:59:09.576Z,102426.75
2023-06-23T15:01:37.696Z,102433.50
2023-06-23T15:04:06.180Z,102441.31
2023-06-23T15:06:35.410Z,102428.28
2023-06-23T15:09:06.178Z,102416.38
2023-06-23T15:11:37.614Z,102427.81
2023-06-23T15:14:06.253Z,102435.72
2023-06-23T15:16:37.166Z,102427.59
2023-06-23T15:19:07.825Z,102426.19
2023-06-23T15:21:38.241Z,102427.94
2023-06-23T15:24:07.082Z,102428.56
2023-06-23T15:26:35.896Z,102434.63
2023-06-23T15:29:11.050Z,102440.72
2023-06-23T15:31:40.559Z,102425.47
2023-06-23T15:34:10.400Z,102432.50
2023-06-23T15:36:43.175Z,102424.16
2023-06-23T15:39:11.738Z,102422.09
2023-06-23T15:41:44.850Z,102417.75
2023-06-23T15:44:14.396Z,102428.41
2023-06-23T15:46:42.454Z,102418.44
2023-06-23T15:49:11.082Z,102417.28
2023-06-23T15:51:41.008Z,102403.03
2023-06-23T15:54:09.187Z,102415.53
2023-06-23T15:56:37.332Z,102419.81
2023-06-23T15:59:05.468Z,102413.50
2023-06-23T16:01:34.976Z,102408.63
2023-06-23T16:04:03.195Z,102415.75
2023-06-23T16:06:31.605Z,102410.59
2023-06-23T16:08:59.959Z,102410.31
2023-06-23T16:11:28.129Z,102397.22
2023-06-23T16:13:56.593Z,102414.22
2023-06-23T16:16:24.877Z,102406.81
2023-06-23T16:18:56.224Z,102403.69
2023-06-23T16:21:24.386Z,102409.63
2023-06-23T16:23:52.668Z,102408.19
2023-06-23T16:26:20.865Z,102407.41
2023-06-23T16:28:49.213Z,102400.75
2023-06-23T16:31:19.082Z,102406.88
2023-06-23T16:33:49.230Z,102417.59
2023-06-23T16:36:18.779Z,102423.31
2023-06-23T16:38:46.912Z,102405.75
2023-06-23T16:41:15.795Z,102411.44
2023-06-23T16:43:46.209Z,102414.78
2023-06-23T16:46:14.338Z,102424.78
2023-06-23T16:48:42.466Z,102410.47
2023-06-23T16:51:13.224Z,102404.75
2023-06-23T16:53:42.934Z,102423.19
2023-06-23T16:56:12.870Z,102428.72
2023-06-23T16:58:40.997Z,102422.03
2023-06-23T17:01:09.053Z,102419.47
2023-06-23T17:03:37.441Z,102433.31
2023-06-23T17:06:05.794Z,102422.31
2023-06-23T17:08:36.125Z,102424.72
2023-06-23T17:11:05.652Z,102426.16
2023-06-23T17:13:34.871Z,102428.28
2023-06-23T17:16:03.686Z,102408.69
2023-06-23T17:18:31.991Z,102419.63
2023-06-23T17:21:00.216Z,102414.56
2023-06-23T17:23:28.332Z,102422.41
2023-06-23T17:25:58.874Z,102418.63
2023-06-23T17:28:29.934Z,102420.31
2023-06-23T17:30:58.069Z,102423.56
2023-06-23T17:33:26.185Z,102428.94
2023-06-23T17:35:54.446Z,102425.50
2023-06-23T17:38:23.048Z,102427.88
2023-06-23T17:40:51.187Z,102415.28
2023-06-23T17:43:19.396Z,102427.75
2023-06-23T17:45:48.984Z,102421.44
2023-06-23T17:48:17.123Z,102428.09
2023-06-23T17:50:45.237Z,102422.25
2023-06-23T17:53:13.270Z,102420.38
2023-06-23T17:55:41.406Z,102420.16
2023-06-23T17:58:09.453Z,102417.19
2023-06-23T18:00:37.543Z,102416.53
2023-06-23T18:03:07.249Z,102434.97
2023-06-23T18:05:35.695Z,102416.13
2023-06-23T18:08:04.386Z,102415.72
2023-06-23T18:10:32.446Z,102426.94
2023-06-23T18:13:00.625Z,102422.53
2023-06-23T18:15:28.929Z,102421.56
2023-06-23T18:17:57.074Z,102417.09
2023-06-23T18:20:26.831Z,102426.38
2023-06-23T18:22:55.038Z,102419.38
2023-06-23T18:25:23.164Z,102413.94
2023-06-23T18:27:51.221Z,102411.44
2023-06-23T18:30:19.439Z,102413.53
2023-06-23T18:32:47.592Z,102419.22
2023-06-23T18:35:16.024Z,102411.69
2023-06-23T18:37:45.551Z,102417.75
2023-06-23T18:40:14.132Z,102410.22
2023-06-23T18:42:42.373Z,102413.53
2023-06-23T18:45:12.795Z,102401.41
2023-06-23T18:47:41.157Z,102406.78
2023-06-23T18:50:09.711Z,102402.59
2023-06-23T18:52:38.065Z,102406.34
2023-06-23T18:55:08.776Z,102407.31
2023-06-23T18:57:36.786Z,102416.66
2023-06-23T19:00:06.693Z,102421.38
2023-06-23T19:02:35.020Z,102410.66
2023-06-23T19:05:03.440Z,102420.16
2023-06-23T19:07:31.771Z,102416.34
2023-06-23T19:09:59.986Z,102419.19
2023-06-23T19:12:29.417Z,102412.88
2023-06-23T19:14:57.592Z,102417.03
2023-06-23T19:17:25.669Z,102413.66
2023-06-23T19:19:54.012Z,102417.41
2023-06-23T19:22:22.181Z,102415.94
2023-06-23T19:24:50.230Z,102425.94
2023-06-23T19:27:18.384Z,102419.06
2023-06-23T19:29:48.274Z,102414.06
2023-06-23T19:32:16.529Z,102400.59
2023-06-23T19:34:44.660Z,102420.78
2023-06-23T19:37:12.745Z,102419.50
2023-06-23T19:39:51.119Z,102424.09
2023-06-23T19:42:27.380Z,102426.97
2023-06-23T19:44:56.841Z,102427.81
2023-06-23T19:47:25.018Z,102432.22
2023-06-23T19:49:53.167Z,102424.72
2023-06-23T19:52:21.352Z,102426.38
2023-06-23T19:54:49.642Z,102419.75
2023-06-23T19:57:17.743Z,102430.59
2023-06-23T19:59:48.339Z,102434.91
2023-06-23T20:02:18.020Z,102444.84
2023-06-23T20:04:46.366Z,102427.84
2023-06-23T20:07:17.827Z,102435.72
2023-06-23T20:09:46.348Z,102430.88
2023-06-23T20:12:14.397Z,102439.38
2023-06-23T20:14:42.531Z,102433.13
2023-06-23T20:17:11.007Z,102428.56
2023-06-23T20:19:40.458Z,102427.72
2023-06-23T20:22:09.842Z,102432.47
2023-06-23T20:24:37.958Z,102437.69
2023-06-23T20:27:07.227Z,102435.75
2023-06-23T20:29:35.489Z,102440.88
2023-06-23T20:32:03.667Z,102439.94
2023-06-23T20:34:31.752Z,102443.06
2023-06-23T20:37:01.720Z,102438.66
2023-06-23T20:39:29.746Z,102448.91
2023-06-23T20:41:57.751Z,102449.41
2023-06-23T20:44:25.922Z,102450.44
2023-06-23T20:46:53.930Z,102446.69
2023-06-23T20:49:24.518Z,102453.78
2023-06-23T20:51:52.799Z,102459.22
2023-06-23T20:54:22.669Z,102466.59
2023-06-23T20:56:50.846Z,102476.56
2023-06-23T20:59:18.879Z,102470.75
2023-06-23T21:01:47.201Z,102463.03
2023-06-23T21:04:16.285Z,102451.06
2023-06-23T21:06:44.735Z,102467.47
2023-06-23T21:09:12.970Z,102458.34
2023-06-23T21:11:42.633Z,102450.22
2023-06-23T21:14:10.745Z,102451.59
2023-06-23T21:16:39.099Z,102445.56
2023-06-23T21:19:09.245Z,102447.59
2023-06-23T21:21:37.448Z,102450.03
2023-06-23T21:24:06.130Z,102449.19
2023-06-23T21:26:38.145Z,102450.03
2023-06-23T21:31:41.009Z,102442.28
2023-06-23T21:34:09.176Z,102444.06
2023-06-23T21:36:37.280Z,102452.34
2023-06-23T21:39:05.358Z,102435.47
2023-06-23T21:41:33.771Z,102439.00
2023-06-23T21:44:01.812Z,102432.75
2023-06-23T21:46:31.574Z,102431.09
2023-06-23T21:48:59.668Z,102432.75
2023-06-23T21:51:27.709Z,102440.25
2023-06-23T21:53:55.797Z,102438.06
2023-06-23T21:56:24.338Z,102438.44
2023-06-23T21:58:52.846Z,102431.34
2023-06-23T22:01:22.397Z,102435.56
2023-06-23T22:03:51.877Z,102436.03
2023-06-23T22:06:19.873Z,102438.72
2023-06-23T22:08:49.040Z,102432.03
2023-06-23T22:11:18.344Z,102429.31
2023-06-23T22:13:47.937Z,102438.44
2023-06-23T22:16:15.984Z,102429.69
2023-06-23T22:18:49.770Z,102425.94
2023-06-23T22:21:19.908Z,102433.50
2023-06-23T22:23:48.010Z,102440.88
2023-06-23T22:26:16.216Z,102435.94
2023-06-23T22:28:45.438Z,102435.28
2023-06-23T22:31:15.469Z,102437.88
2023-06-23T22:33:43.675Z,102434.72
2023-06-23T22:36:17.991Z,102436.59
2023-06-23T22:38:57.740Z,102430.16
2023-06-23T22:41:26.109Z,102432.19
2023-06-23T22:43:54.506Z,102436.94
2023-06-23T22:46:22.965Z,102427.25
2023-06-23T22:48:51.815Z,102439.41
2023-06-23T22:51:20.149Z,102425.69
2023-06-23T22:53:50.599Z,102435.66
2023-06-23T22:56:21.069Z,102431.38
2023-06-23T22:58:54.535Z,102439.94
2023-06-23T23:01:24.051Z,102433.91
2023-06-23T23:03:52.761Z,102437.81
2023-06-23T23:06:21.353Z,102433.22
2023-06-23T23:08:50.804Z,102440.16
2023-06-23T23:11:19.308Z,102436.88
2023-06-23T23:13:47.357Z,102439.56
2023-06-23T23:16:16.578Z,102437.91
2023-06-23T23:18:44.984Z,102442.72
2023-06-23T23:21:18.938Z,102444.25
2023-06-23T23:23:47.498Z,102445.06
2023-06-23T23:26:17.548Z,102446.59
2023-06-23T23:28:49.567Z,102445.91
2023-06-23T23:31:21.241Z,102446.69
2023-06-23T23:33:55.437Z,102449.56
2023-06-23T23:36:23.878Z,102440.25
2023-06-23T23:38:52.009Z,102441.72
2023-06-23T23:41:21.455Z,102443.66
2023-06-23T23:43:49.488Z,102442.47
2023-06-23T23:46:17.651Z,102432.66
2023-06-23T23:48:45.798Z,102440.78
2023-06-23T23:51:14.063Z,102436.38
2023-06-23T23:53:42.100Z,102429.94
2023-06-23T23:56:12.516Z,102431.44
2023-06-23T23:58:42.084Z,102427.72
